Huvudsida
METAR-TAF:

METAR-TAF

Flygplatser :

Joensuu flygplats

Joensuu, Finland

latitud: 62-40N, longitud: 029-38E, höjd: 119 m

Aktuellt väderrapport

Denna rapport gjordes för 24 minuter sedan, klockan 12:50 UTC
Vind 8 kt från syd/sydost, varierande mellan ost och syd/sydväst
Temperatur 21°C
Fuktighet 56%
Tryck 1016 hPa
Sikt 10 km eller mer
Inga moln under 1 500 m eller inga cumulonimbus

METAR: EFJO 171250Z AUTO 15008KT 090V210 CAVOK 21/12 Q1016

Tid: 16:14 (13:14 UTC)

Väderprognos

Denna rapport gjordes för 1 timme och 43 minuter sedan, klockan 11:31 UTC
Prognos gäller från 17 kl. 12 UTC till 17 kl. 15 UTC
Vind 7 kt från syd/sydost
Sikt 10 km eller mer
Inga moln under 1 500 m eller inga cumulonimbus

TAF: EFJO 171131Z 1712/1715 15007KT CAVOK

Aktuella väderrapporter och prognoser från 4000 flygplatser (METAR- och TAF-rapporter).

De tillgängliga stationerna syns som gula och röda prickar på kartan.

För musen över prickarna för att se namnen på stationerna.

Klicka sedan för att få väderrapporter och prognoser.

För att ändra kartan: Klicka på de gröna knapparna med ett svart kors på för att zooma in; den gröna knappen med ett streck på för att zooma ut; eller på de gröna pilarna för angränsande kartor.


METAR-TAF: